Time;durP1;ratioP1;P1;durP2;ratioP2;P2;SDS_P1;SDS_P2;PMS_P1;PMS_P2;Temp;Humidity;BMP_temperature;BMP_pressure;BME280_temperature;BME280_humidity;BME280_pressure;Samples;Min_cycle;Max_cycle;Signal;HPM_P1;HPM_P2
2023/04/29 00:01:18;;;;;;;3.8;2.3;;;;;;;11.96;100;936.2915;;;;
2023/04/29 00:03:43;;;;;;;2.7;2;;;;;;;11.95;100;936.2659;;;;
2023/04/29 00:06:10;;;;;;;1.8;1.1;;;;;;;12.03;100;936.2208;;;;
2023/04/29 00:08:33;;;;;;;2.9;1.7;;;;;;;11.93;100;936.1383;;;;
2023/04/29 00:10:59;;;;;;;2.5;1;;;;;;;11.84;100;935.914;;;;
2023/04/29 00:13:24;;;;;;;1.3;0.9;;;;;;;11.85;100;935.9962;;;;
2023/04/29 00:15:50;;;;;;;1.6;1.3;;;;;;;11.98;100;936.0027;;;;
2023/04/29 00:18:15;;;;;;;3.5;3.2;;;;;;;11.66;100;936.0058;;;;
2023/04/29 00:20:42;;;;;;;3.3;1.8;;;;;;;11.72;100;936.0217;;;;
2023/04/29 00:23:07;;;;;;;2.3;1.3;;;;;;;11.88;100;935.9794;;;;
2023/04/29 00:25:37;;;;;;;1.1;0.8;;;;;;;11.94;100;935.9356;;;;
2023/04/29 00:28:01;;;;;;;1.2;0.8;;;;;;;12.09;100;936.0165;;;;
2023/04/29 00:30:28;;;;;;;1;0.8;;;;;;;12.16;100;935.9949;;;;
2023/04/29 00:32:53;;;;;;;1.3;0.9;;;;;;;12.23;100;936.0694;;;;
2023/04/29 00:35:23;;;;;;;1.5;0.9;;;;;;;12.24;100;936.0678;;;;
2023/04/29 00:37:51;;;;;;;2.1;0.8;;;;;;;12.34;100;935.9942;;;;
2023/04/29 00:40:16;;;;;;;1.5;0.5;;;;;;;12.43;100;935.8596;;;;
2023/04/29 00:42:46;;;;;;;1.2;0.7;;;;;;;12.44;100;935.7876;;;;
2023/04/29 00:45:12;;;;;;;1.4;0.8;;;;;;;12.45;100;935.7308;;;;
2023/04/29 00:47:38;;;;;;;1.5;1;;;;;;;12.42;100;935.7869;;;;
2023/04/29 00:50:03;;;;;;;1;0.9;;;;;;;12.4;100;935.7794;;;;
2023/04/29 00:53:16;;;;;;;0.9;0.7;;;;;;;12.42;100;935.7533;;;;
2023/04/29 00:55:41;;;;;;;1.2;0.8;;;;;;;12.41;100;935.7642;;;;
2023/04/29 00:58:10;;;;;;;1.1;0.8;;;;;;;12.44;100;935.8011;;;;
2023/04/29 01:00:35;;;;;;;1.6;0.7;;;;;;;12.49;99.72559;935.778;;;;
2023/04/29 01:03:03;;;;;;;0.6;0.6;;;;;;;12.44;100;935.7605;;;;
2023/04/29 01:05:28;;;;;;;1.2;0.7;;;;;;;12.46;99.80957;935.6606;;;;
2023/04/29 01:07:54;;;;;;;0.9;0.5;;;;;;;12.34;100;935.7028;;;;
2023/04/29 01:10:19;;;;;;;1;0.6;;;;;;;12.34;100;935.6884;;;;
2023/04/29 01:12:44;;;;;;;1.1;0.8;;;;;;;12.28;100;935.6853;;;;
2023/04/29 01:15:16;;;;;;;1.1;0.8;;;;;;;12.12;100;935.6692;;;;
2023/04/29 01:17:41;;;;;;;1.2;0.6;;;;;;;12.15;100;935.6573;;;;
2023/04/29 01:20:06;;;;;;;1.4;1;;;;;;;12.14;100;935.714;;;;
2023/04/29 01:22:31;;;;;;;1;0.9;;;;;;;12.24;100;935.6535;;;;
2023/04/29 01:24:57;;;;;;;2.4;0.9;;;;;;;12.32;100;935.5911;;;;
2023/04/29 01:27:22;;;;;;;2.8;1.1;;;;;;;12.35;100;935.5919;;;;
2023/04/29 01:29:47;;;;;;;2.1;1.2;;;;;;;12.36;100;935.5559;;;;
2023/04/29 01:32:12;;;;;;;1.3;1;;;;;;;12.3;100;935.6614;;;;
2023/04/29 01:34:37;;;;;;;3.7;1.1;;;;;;;12.22;100;935.6375;;;;
2023/04/29 01:37:03;;;;;;;2.5;1;;;;;;;12.23;100;935.5984;;;;
2023/04/29 01:39:27;;;;;;;0.7;0.7;;;;;;;12.31;100;935.6183;;;;
2023/04/29 01:41:53;;;;;;;1.3;0.9;;;;;;;12.21;100;935.6412;;;;
2023/04/29 01:44:18;;;;;;;1.5;0.9;;;;;;;12.1;100;935.5975;;;;
2023/04/29 01:46:44;;;;;;;1.3;1;;;;;;;12.13;100;935.6102;;;;
2023/04/29 01:49:09;;;;;;;2.1;1;;;;;;;12.16;100;935.5344;;;;
2023/04/29 01:51:36;;;;;;;1.4;0.9;;;;;;;12.13;100;935.5608;;;;
2023/04/29 01:54:04;;;;;;;2.3;1.9;;;;;;;12.13;100;935.6047;;;;
2023/04/29 01:56:27;;;;;;;1.5;1.1;;;;;;;12.17;100;935.6245;;;;
2023/04/29 01:58:53;;;;;;;4;3.7;;;;;;;12.08;100;935.5288;;;;
2023/04/29 02:01:18;;;;;;;3.4;2.4;;;;;;;12.17;100;935.5303;;;;
2023/04/29 02:03:46;;;;;;;1.9;1.6;;;;;;;12.2;100;935.4952;;;;
2023/04/29 02:06:11;;;;;;;1.9;1.1;;;;;;;12.19;100;935.4824;;;;
2023/04/29 02:08:38;;;;;;;2;0.8;;;;;;;12.06;100;935.4004;;;;
2023/04/29 02:11:04;;;;;;;1.4;1;;;;;;;12.03;100;935.4427;;;;
2023/04/29 02:13:30;;;;;;;2;0.9;;;;;;;12.09;100;935.4586;;;;
2023/04/29 02:15:56;;;;;;;0.9;0.7;;;;;;;12.16;100;935.4386;;;;
2023/04/29 02:18:22;;;;;;;0.7;0.7;;;;;;;12.08;100;935.4961;;;;
2023/04/29 02:20:53;;;;;;;2.1;0.7;;;;;;;12.02;100;935.5425;;;;
2023/04/29 02:23:16;;;;;;;1.4;0.6;;;;;;;12.09;100;935.4762;;;;
2023/04/29 02:25:43;;;;;;;2.3;0.9;;;;;;;12.07;100;935.473;;;;
2023/04/29 02:28:08;;;;;;;1.2;0.7;;;;;;;12.01;100;935.5342;;;;
2023/04/29 02:30:35;;;;;;;1.3;0.6;;;;;;;12;100;935.5517;;;;
2023/04/29 02:33:00;;;;;;;1.8;0.6;;;;;;;11.96;100;935.551;;;;
2023/04/29 02:35:30;;;;;;;0.7;0.7;;;;;;;12;100;935.5581;;;;
2023/04/29 02:37:56;;;;;;;1;0.7;;;;;;;12.12;100;935.6509;;;;
2023/04/29 02:40:20;;;;;;;0.9;0.8;;;;;;;12.19;100;935.5519;;;;
2023/04/29 02:42:49;;;;;;;1.3;0.7;;;;;;;12.25;98.90332;935.5433;;;;
2023/04/29 02:45:14;;;;;;;1;0.7;;;;;;;12.22;99.20313;935.5602;;;;
2023/04/29 02:47:43;;;;;;;0.9;0.7;;;;;;;12.19;99.8291;935.4928;;;;
2023/04/29 02:50:14;;;;;;;1.2;1.1;;;;;;;12.08;100;935.5305;;;;
2023/04/29 02:52:40;;;;;;;2.7;1.2;;;;;;;12.07;100;935.5081;;;;
2023/04/29 02:55:06;;;;;;;0.9;0.9;;;;;;;12.08;100;935.5009;;;;
2023/04/29 02:57:31;;;;;;;1.6;1.1;;;;;;;12.02;100;935.5441;;;;
2023/04/29 02:59:58;;;;;;;0.8;0.8;;;;;;;12.09;100;935.5759;;;;
2023/04/29 03:02:23;;;;;;;1.2;1.1;;;;;;;12.11;100;935.548;;;;
2023/04/29 03:04:53;;;;;;;1.9;1.1;;;;;;;12.15;100;935.4865;;;;
2023/04/29 03:07:18;;;;;;;2.4;1.6;;;;;;;12.13;98.9209;935.4626;;;;
2023/04/29 03:09:44;;;;;;;3.3;1.3;;;;;;;12.23;98.30176;935.4683;;;;
2023/04/29 03:12:10;;;;;;;2;1.5;;;;;;;12.31;97.13867;935.4874;;;;
2023/04/29 03:14:37;;;;;;;2.9;2.3;;;;;;;12.27;97.46387;935.4698;;;;
2023/04/29 03:17:03;;;;;;;1.2;1.1;;;;;;;12.07;98.87207;935.5505;;;;
2023/04/29 03:19:29;;;;;;;1.1;1;;;;;;;11.97;100;935.6588;;;;
2023/04/29 03:21:53;;;;;;;1.1;1;;;;;;;11.8;100;935.7366;;;;
2023/04/29 03:24:19;;;;;;;0.8;0.8;;;;;;;11.75;100;935.8543;;;;
2023/04/29 03:26:47;;;;;;;1.8;1.7;;;;;;;11.61;100;935.7661;;;;
2023/04/29 03:29:12;;;;;;;2.5;2.4;;;;;;;11.35;100;935.6817;;;;
2023/04/29 03:31:40;;;;;;;2.5;2.3;;;;;;;11.26;100;935.7109;;;;
2023/04/29 03:34:06;;;;;;;2.4;1.2;;;;;;;11.3;100;935.5572;;;;
2023/04/29 03:36:33;;;;;;;2.5;1;;;;;;;11.41;100;935.5112;;;;
2023/04/29 03:38:59;;;;;;;1.2;1;;;;;;;11.62;100;935.6261;;;;
2023/04/29 03:41:31;;;;;;;2.2;1.3;;;;;;;11.83;100;935.6451;;;;
2023/04/29 03:43:59;;;;;;;3.6;2;;;;;;;11.92;100;935.6459;;;;
2023/04/29 03:46:24;;;;;;;1.8;1.3;;;;;;;11.91;100;935.5645;;;;
2023/04/29 03:48:54;;;;;;;1.9;1.4;;;;;;;11.78;100;935.5259;;;;
2023/04/29 03:51:17;;;;;;;10.6;5.6;;;;;;;11.64;100;935.5128;;;;
2023/04/29 03:53:45;;;;;;;15.8;8;;;;;;;11.61;100;935.5045;;;;
2023/04/29 03:56:13;;;;;;;7.7;3.9;;;;;;;11.59;100;935.4871;;;;
2023/04/29 03:58:38;;;;;;;10.8;5.6;;;;;;;11.69;100;935.4203;;;;
2023/04/29 04:02:36;;;;;;;5.5;2.9;;;;;;;11.69;100;935.4077;;;;
2023/04/29 04:05:05;;;;;;;3.3;1.3;;;;;;;11.63;100;935.3334;;;;
2023/04/29 04:07:31;;;;;;;2.3;1.5;;;;;;;11.68;100;935.3789;;;;
2023/04/29 04:09:59;;;;;;;1.5;1;;;;;;;11.55;100;935.345;;;;
2023/04/29 04:12:24;;;;;;;1.3;1;;;;;;;11.45;100;935.4382;;;;
2023/04/29 04:14:52;;;;;;;1.6;1.3;;;;;;;11.37;100;935.37;;;;
2023/04/29 04:17:20;;;;;;;1.8;1.4;;;;;;;11.36;100;935.527;;;;
2023/04/29 04:19:52;;;;;;;0.8;0.8;;;;;;;11.27;100;935.6217;;;;
2023/04/29 04:22:22;;;;;;;1;0.9;;;;;;;11.38;100;935.5685;;;;
2023/04/29 04:24:47;;;;;;;2.3;1.3;;;;;;;11.33;100;935.5422;;;;
2023/04/29 04:27:12;;;;;;;3.6;1.8;;;;;;;11.27;100;935.5891;;;;
2023/04/29 04:29:37;;;;;;;2.7;2;;;;;;;11.18;100;935.5415;;;;
2023/04/29 04:32:05;;;;;;;2.3;1.8;;;;;;;11.04;100;935.6064;;;;
2023/04/29 04:34:31;;;;;;;1.6;1.5;;;;;;;11.06;100;935.7253;;;;
2023/04/29 04:36:55;;;;;;;1.3;1;;;;;;;11.07;100;935.6552;;;;
2023/04/29 04:39:22;;;;;;;1.6;1.1;;;;;;;11.06;100;935.6854;;;;
2023/04/29 04:41:48;;;;;;;1.2;1.1;;;;;;;11.2;100;935.685;;;;
2023/04/29 04:44:15;;;;;;;1.5;1.4;;;;;;;11.19;100;935.7128;;;;
2023/04/29 04:46:41;;;;;;;2.2;1.7;;;;;;;11.18;100;935.7367;;;;
2023/04/29 04:49:06;;;;;;;1.7;1.3;;;;;;;11.22;100;935.6463;;;;
2023/04/29 04:51:31;;;;;;;1.3;1.2;;;;;;;11.31;100;935.6824;;;;
2023/04/29 04:53:58;;;;;;;1.9;1.5;;;;;;;11.42;100;935.5856;;;;
2023/04/29 04:56:23;;;;;;;2.7;1.9;;;;;;;11.35;100;935.6666;;;;
2023/04/29 04:58:51;;;;;;;3.4;1.9;;;;;;;11.34;100;935.7023;;;;
2023/04/29 05:01:16;;;;;;;5.9;3.6;;;;;;;11.32;100;935.7525;;;;
2023/04/29 05:03:45;;;;;;;1.7;1.4;;;;;;;11.36;100;935.8141;;;;
2023/04/29 05:06:10;;;;;;;1.8;0.8;;;;;;;11.35;100;935.865;;;;
2023/04/29 05:08:40;;;;;;;0.8;0.6;;;;;;;11.38;100;935.8188;;;;
2023/04/29 05:11:04;;;;;;;1.1;0.7;;;;;;;11.43;100;935.8544;;;;
2023/04/29 05:13:29;;;;;;;1;0.8;;;;;;;11.34;100;935.8706;;;;
2023/04/29 05:15:56;;;;;;;1.2;1.1;;;;;;;11.19;100;935.9081;;;;
2023/04/29 05:18:21;;;;;;;1.1;0.9;;;;;;;11.12;100;935.8672;;;;
2023/04/29 05:20:54;;;;;;;1.6;1.1;;;;;;;11.32;100;935.8203;;;;
2023/04/29 05:23:21;;;;;;;1.8;1.3;;;;;;;11.63;100;935.847;;;;
2023/04/29 05:25:45;;;;;;;1.5;1.4;;;;;;;11.72;100;935.8702;;;;
2023/04/29 05:28:13;;;;;;;1.3;1;;;;;;;11.91;100;935.8119;;;;
2023/04/29 05:30:38;;;;;;;2.7;1.2;;;;;;;12.02;100;935.9127;;;;
2023/04/29 05:33:05;;;;;;;1.7;1.1;;;;;;;12.16;100;935.9183;;;;
2023/04/29 05:35:31;;;;;;;1.8;1.1;;;;;;;12.25;100;935.7756;;;;
2023/04/29 05:38:01;;;;;;;2.7;1.4;;;;;;;12.16;100;935.8161;;;;
2023/04/29 05:40:32;;;;;;;2.4;1.2;;;;;;;12.39;100;935.8304;;;;
2023/04/29 05:43:02;;;;;;;1.6;1;;;;;;;12.82;99.98438;935.8088;;;;
2023/04/29 05:45:32;;;;;;;2;0.8;;;;;;;14.38;95.26367;935.8647;;;;
2023/04/29 05:47:57;;;;;;;0.6;0.5;;;;;;;15.4;85.16406;935.8111;;;;
2023/04/29 05:50:26;;;;;;;0.7;0.6;;;;;;;16.73;78.94824;935.8437;;;;
2023/04/29 05:52:53;;;;;;;0.5;0.5;;;;;;;18.34;72.18262;935.7719;;;;
2023/04/29 05:55:16;;;;;;;1.2;0.6;;;;;;;18.79;67.32422;935.8508;;;;
2023/04/29 05:57:43;;;;;;;0.5;0.5;;;;;;;16.81;72.76563;935.8896;;;;
2023/04/29 06:00:09;;;;;;;1.4;0.5;;;;;;;15.53;77.76367;935.9348;;;;
2023/04/29 06:02:38;;;;;;;0.9;0.6;;;;;;;14.43;82.02637;935.8392;;;;
2023/04/29 06:05:09;;;;;;;0.8;0.6;;;;;;;14.18;84.23535;935.923;;;;
2023/04/29 06:07:37;;;;;;;0.5;0.5;;;;;;;14.33;85.42676;935.9261;;;;
2023/04/29 06:10:01;;;;;;;0.7;0.5;;;;;;;15.24;83.54102;935.8557;;;;
2023/04/29 06:12:27;;;;;;;1.2;0.6;;;;;;;16.27;79.50195;935.9045;;;;
2023/04/29 06:14:53;;;;;;;0.9;0.8;;;;;;;16.35;77.51465;935.9361;;;;
2023/04/29 06:17:18;;;;;;;3.6;1.2;;;;;;;18.79;72.2793;935.963;;;;
2023/04/29 06:19:45;;;;;;;3.3;0.7;;;;;;;21.13;62.97754;935.9227;;;;
2023/04/29 06:22:10;;;;;;;1.4;1;;;;;;;23.61;55.47461;935.9662;;;;
2023/04/29 06:24:37;;;;;;;0.9;0.7;;;;;;;23.61;54.33301;935.9796;;;;
2023/04/29 06:27:03;;;;;;;0.5;0.4;;;;;;;23.62;52.52148;935.9867;;;;
2023/04/29 06:29:28;;;;;;;1.6;0.4;;;;;;;24.65;50.43848;935.9497;;;;
2023/04/29 06:31:54;;;;;;;0.4;0.4;;;;;;;22.82;50.00781;935.8783;;;;
2023/04/29 06:34:20;;;;;;;2;0.5;;;;;;;21.93;54.37207;935.887;;;;
2023/04/29 06:36:45;;;;;;;0.5;0.5;;;;;;;20.91;57.56836;935.8555;;;;
2023/04/29 06:39:12;;;;;;;0.9;0.4;;;;;;;18.48;62.89258;935.9001;;;;
2023/04/29 06:41:38;;;;;;;0.7;0.7;;;;;;;18.49;65.30176;935.8675;;;;
2023/04/29 06:44:04;;;;;;;2;0.9;;;;;;;18.05;67.56934;935.9283;;;;
2023/04/29 06:46:29;;;;;;;1;0.7;;;;;;;17.37;68.9502;935.9441;;;;
2023/04/29 06:48:56;;;;;;;1.2;0.8;;;;;;;17.27;69.5957;935.8945;;;;
2023/04/29 06:51:21;;;;;;;0.5;0.5;;;;;;;17.97;70.41602;935.8268;;;;
2023/04/29 06:53:49;;;;;;;0.5;0.4;;;;;;;20.68;60.58984;935.8411;;;;
2023/04/29 06:56:15;;;;;;;1.8;0.7;;;;;;;20.28;59.08594;935.8437;;;;
2023/04/29 06:58:42;;;;;;;0.5;0.5;;;;;;;20.36;60.60449;935.8636;;;;
2023/04/29 07:01:08;;;;;;;0.3;0.3;;;;;;;23.66;52.2207;935.8442;;;;
2023/04/29 07:03:35;;;;;;;0.4;0.4;;;;;;;24.55;48.82422;935.845;;;;
2023/04/29 07:06:00;;;;;;;0.7;0.5;;;;;;;21.44;54.17188;935.9094;;;;
2023/04/29 07:08:27;;;;;;;1.3;0.6;;;;;;;23.85;50.77246;935.8148;;;;
2023/04/29 07:10:51;;;;;;;0.7;0.5;;;;;;;21.94;54.87988;935.7972;;;;
2023/04/29 07:13:16;;;;;;;0.5;0.5;;;;;;;25.36;47.87402;935.7717;;;;
2023/04/29 07:15:44;;;;;;;0.7;0.5;;;;;;;22.02;51.74707;935.747;;;;
2023/04/29 07:18:13;;;;;;;0.3;0.3;;;;;;;24.15;49.89844;935.7828;;;;
2023/04/29 07:20:44;;;;;;;0.6;0.3;;;;;;;22.03;54.08105;935.777;;;;
2023/04/29 07:23:08;;;;;;;0.6;0.4;;;;;;;22.86;53.125;935.6862;;;;
2023/04/29 07:25:36;;;;;;;1.2;0.7;;;;;;;22.53;53.61426;935.7709;;;;
2023/04/29 07:28:01;;;;;;;0.5;0.5;;;;;;;24.64;49.3418;935.7698;;;;
2023/04/29 07:30:27;;;;;;;0.2;0.2;;;;;;;26.2;42.56836;935.7558;;;;
2023/04/29 07:32:52;;;;;;;0.3;0.3;;;;;;;22.51;51.09961;935.8044;;;;
2023/04/29 07:35:20;;;;;;;0.5;0.4;;;;;;;22.3;51.85059;935.7798;;;;
2023/04/29 07:37:47;;;;;;;1.3;0.4;;;;;;;20.53;59.35352;935.7949;;;;
2023/04/29 07:40:10;;;;;;;0.3;0.3;;;;;;;22.29;55.91992;935.7672;;;;
2023/04/29 07:42:39;;;;;;;0.3;0.3;;;;;;;22.85;51.20996;935.7425;;;;
2023/04/29 07:45:12;;;;;;;0.8;0.2;;;;;;;24.14;49.27441;935.7635;;;;
2023/04/29 07:47:36;;;;;;;0.6;0.3;;;;;;;24.21;46.79688;935.7692;;;;
2023/04/29 07:50:04;;;;;;;0.4;0.4;;;;;;;24.35;49.86133;935.7649;;;;
2023/04/29 07:52:29;;;;;;;0.8;0.3;;;;;;;25.58;43.38477;935.7668;;;;
2023/04/29 07:54:56;;;;;;;0.6;0.4;;;;;;;25.53;44.16992;935.778;;;;
2023/04/29 07:57:21;;;;;;;0.3;0.3;;;;;;;24.71;46.33008;935.8025;;;;
2023/04/29 07:59:48;;;;;;;0.3;0.2;;;;;;;25.58;43.80859;935.7988;;;;
2023/04/29 08:02:15;;;;;;;0.2;0.2;;;;;;;24.96;44.0791;935.7797;;;;
2023/04/29 08:04:43;;;;;;;0.5;0.5;;;;;;;23.71;47.64844;935.7822;;;;
2023/04/29 08:07:09;;;;;;;0.4;0.4;;;;;;;23.27;48.2959;935.8309;;;;
2023/04/29 08:09:37;;;;;;;0.5;0.3;;;;;;;23.29;47.93457;935.824;;;;
2023/04/29 08:12:02;;;;;;;0.4;0.3;;;;;;;22.82;50.52441;935.8279;;;;
2023/04/29 08:14:28;;;;;;;0.5;0.4;;;;;;;21.46;54.03516;935.8283;;;;
2023/04/29 08:16:54;;;;;;;2.2;0.5;;;;;;;20.74;57.59277;935.8886;;;;
2023/04/29 08:19:22;;;;;;;0.6;0.4;;;;;;;19.85;58.86523;935.7958;;;;
2023/04/29 08:21:47;;;;;;;0.3;0.3;;;;;;;19.89;56.73633;935.7153;;;;
2023/04/29 08:24:13;;;;;;;0.6;0.4;;;;;;;19.59;59.99707;935.7294;;;;
2023/04/29 08:26:38;;;;;;;0.6;0.4;;;;;;;19.04;61.9707;935.7505;;;;
2023/04/29 08:29:05;;;;;;;1.6;0.4;;;;;;;19.28;62.73828;935.7296;;;;
2023/04/29 08:31:30;;;;;;;0.3;0.3;;;;;;;20.75;60.41113;935.7603;;;;
2023/04/29 08:34:00;;;;;;;0.5;0.5;;;;;;;21.25;54.73633;935.7731;;;;
2023/04/29 08:36:27;;;;;;;0.3;0.3;;;;;;;21.15;59.30762;935.7933;;;;
2023/04/29 08:38:55;;;;;;;0.4;0.4;;;;;;;23.73;51.28809;935.7769;;;;
2023/04/29 08:41:20;;;;;;;0.3;0.3;;;;;;;25.04;48.5;935.7911;;;;
2023/04/29 08:43:47;;;;;;;0.8;0.4;;;;;;;26.42;41.66699;935.6682;;;;
2023/04/29 08:46:12;;;;;;;0.2;0.2;;;;;;;25.78;40.40137;935.698;;;;
2023/04/29 08:48:41;;;;;;;0.4;0.4;;;;;;;24.97;45.02441;935.7417;;;;
2023/04/29 08:51:05;;;;;;;0.4;0.4;;;;;;;23.94;44.9668;935.6953;;;;
2023/04/29 08:53:32;;;;;;;0.5;0.3;;;;;;;24.1;44.85352;935.6287;;;;
2023/04/29 08:55:57;;;;;;;0.4;0.2;;;;;;;24.11;43.68945;935.6003;;;;
2023/04/29 08:58:27;;;;;;;0.4;0.3;;;;;;;23.45;46.95117;935.6207;;;;
2023/04/29 09:00:52;;;;;;;1;0.4;;;;;;;24.06;46.68652;935.6267;;;;
2023/04/29 09:03:17;;;;;;;1;0.4;;;;;;;23.14;46.67188;935.6102;;;;
2023/04/29 09:05:45;;;;;;;0.7;0.3;;;;;;;22.67;49.83887;935.6389;;;;
2023/04/29 09:08:15;;;;;;;0.5;0.5;;;;;;;21.75;52.00879;935.6616;;;;
2023/04/29 09:10:40;;;;;;;0.8;0.5;;;;;;;21.2;55.43164;935.6237;;;;
2023/04/29 09:13:07;;;;;;;0.3;0.3;;;;;;;21.15;55.60059;935.65;;;;
2023/04/29 09:15:35;;;;;;;0.4;0.4;;;;;;;20.67;56.49805;935.6863;;;;
2023/04/29 09:18:01;;;;;;;0.8;0.6;;;;;;;20.73;57.08789;935.6025;;;;
2023/04/29 09:20:26;;;;;;;1.1;0.3;;;;;;;20.09;60.93945;935.5867;;;;
2023/04/29 09:22:57;;;;;;;0.6;0.4;;;;;;;19.82;64.09961;935.5808;;;;
2023/04/29 09:25:26;;;;;;;0.4;0.4;;;;;;;19.97;64.48047;935.5505;;;;
2023/04/29 09:27:52;;;;;;;0.9;0.4;;;;;;;21.41;60.06934;935.5753;;;;
2023/04/29 09:30:18;;;;;;;0.6;0.3;;;;;;;22.4;55.13477;935.509;;;;
2023/04/29 09:32:44;;;;;;;0.4;0.3;;;;;;;22.71;52.32129;935.435;;;;
2023/04/29 09:35:09;;;;;;;0.8;0.5;;;;;;;22.05;57.95117;935.3961;;;;
2023/04/29 09:37:36;;;;;;;0.7;0.3;;;;;;;21.39;56.82324;935.4247;;;;
2023/04/29 09:40:01;;;;;;;0.5;0.4;;;;;;;21.27;57.60449;935.4227;;;;
2023/04/29 09:42:26;;;;;;;1.1;0.4;;;;;;;20.87;58.3125;935.4716;;;;
2023/04/29 09:44:53;;;;;;;1;0.4;;;;;;;20.74;59.55762;935.4377;;;;
2023/04/29 09:47:22;;;;;;;0.4;0.4;;;;;;;20.5;60.72656;935.4545;;;;
2023/04/29 09:49:51;;;;;;;0.6;0.3;;;;;;;20.27;60.32227;935.4598;;;;
2023/04/29 09:52:20;;;;;;;0.5;0.4;;;;;;;20.1;61.37402;935.397;;;;
2023/04/29 09:54:47;;;;;;;0.4;0.4;;;;;;;19.94;58.91309;935.3661;;;;
2023/04/29 09:57:13;;;;;;;0.6;0.4;;;;;;;20.64;60.16406;935.3795;;;;
2023/04/29 09:59:38;;;;;;;0.8;0.6;;;;;;;21.48;56.75293;935.293;;;;
2023/04/29 10:02:09;;;;;;;2.1;0.7;;;;;;;21.5;53.71191;935.3318;;;;
2023/04/29 10:04:35;;;;;;;0.8;0.6;;;;;;;21.24;52.88574;935.2681;;;;
2023/04/29 10:07:01;;;;;;;0.3;0.3;;;;;;;21.75;49.0332;935.2473;;;;
2023/04/29 10:09:26;;;;;;;0.9;0.4;;;;;;;22.8;48.87988;935.2275;;;;
2023/04/29 10:11:54;;;;;;;0.4;0.4;;;;;;;23.78;45.66895;935.2325;;;;
2023/04/29 10:14:19;;;;;;;0.6;0.3;;;;;;;23.76;45.58496;935.1877;;;;
2023/04/29 10:20:06;;;;;;;0.5;0.5;;;;;;;22.6;48.13086;935.1878;;;;
2023/04/29 10:22:31;;;;;;;1;0.4;;;;;;;22.27;51.12012;935.2586;;;;
2023/04/29 10:24:58;;;;;;;0.5;0.5;;;;;;;21.4;53.49023;935.3602;;;;
2023/04/29 10:27:22;;;;;;;0.5;0.4;;;;;;;20.85;55.09375;935.3994;;;;
2023/04/29 10:29:50;;;;;;;0.6;0.5;;;;;;;20.46;56.38867;935.4501;;;;
2023/04/29 10:32:15;;;;;;;0.4;0.4;;;;;;;20.45;58.74805;935.3808;;;;
2023/04/29 10:34:42;;;;;;;1.5;0.5;;;;;;;20.16;59.4668;935.3359;;;;
2023/04/29 10:37:10;;;;;;;0.3;0.3;;;;;;;20.37;54.3457;935.3279;;;;
2023/04/29 10:39:35;;;;;;;0.4;0.4;;;;;;;21.63;47.46387;935.2307;;;;
2023/04/29 10:42:00;;;;;;;0.4;0.4;;;;;;;23.84;46.20508;935.2355;;;;
2023/04/29 10:44:25;;;;;;;0.8;0.4;;;;;;;25.71;45.42871;935.1793;;;;
2023/04/29 10:46:52;;;;;;;0.5;0.5;;;;;;;25.99;42.57129;935.0485;;;;
2023/04/29 10:49:17;;;;;;;0.7;0.5;;;;;;;24.77;43.02148;935.0259;;;;
2023/04/29 10:51:42;;;;;;;0.3;0.3;;;;;;;25.11;42.98438;934.9716;;;;
2023/04/29 10:54:07;;;;;;;0.8;0.4;;;;;;;24.4;41.05469;934.9044;;;;
2023/04/29 10:56:32;;;;;;;0.6;0.3;;;;;;;26.02;38.89648;934.8923;;;;
2023/04/29 10:58:57;;;;;;;0.5;0.4;;;;;;;26.6;36.95801;934.8278;;;;
2023/04/29 11:01:23;;;;;;;1.1;0.4;;;;;;;27.03;38.0127;934.9105;;;;
2023/04/29 11:03:48;;;;;;;0.5;0.2;;;;;;;26.43;37.71289;934.8807;;;;
2023/04/29 11:06:13;;;;;;;1.1;0.3;;;;;;;25.33;38.83691;934.9504;;;;
2023/04/29 11:08:40;;;;;;;0.5;0.4;;;;;;;24.56;39.6543;935.0041;;;;
2023/04/29 11:11:05;;;;;;;0.4;0.4;;;;;;;23.46;40.63867;935.0048;;;;
2023/04/29 11:13:31;;;;;;;0.8;0.7;;;;;;;22.93;42.36328;935.0563;;;;
2023/04/29 11:15:55;;;;;;;1.5;0.5;;;;;;;22.46;49.95605;935.1856;;;;
2023/04/29 11:18:21;;;;;;;0.3;0.3;;;;;;;20.75;49.99902;935.2755;;;;
2023/04/29 11:20:46;;;;;;;0.2;0.2;;;;;;;18.66;54.75195;935.4453;;;;
2023/04/29 11:23:12;;;;;;;0.4;0.4;;;;;;;17.82;58.50293;935.5062;;;;
2023/04/29 11:25:38;;;;;;;0.6;0.5;;;;;;;17.59;63.84375;935.5477;;;;
2023/04/29 11:28:05;;;;;;;0.6;0.4;;;;;;;17.29;65.22656;935.5826;;;;
2023/04/29 11:30:30;;;;;;;1.1;0.7;;;;;;;17.19;68.27441;935.5361;;;;
2023/04/29 11:32:55;;;;;;;0.4;0.4;;;;;;;17.22;67.50195;935.6428;;;;
2023/04/29 11:35:21;;;;;;;0.4;0.4;;;;;;;16.91;67.18652;935.6797;;;;
2023/04/29 11:37:51;;;;;;;0.7;0.4;;;;;;;17.23;67.11914;935.5905;;;;
2023/04/29 11:40:15;;;;;;;0.4;0.4;;;;;;;18.26;62.14063;935.5352;;;;
2023/04/29 11:42:44;;;;;;;0.3;0.2;;;;;;;19.67;58.52734;935.3856;;;;
2023/04/29 11:45:09;;;;;;;0.4;0.4;;;;;;;22.21;52.24902;935.377;;;;
2023/04/29 11:47:36;;;;;;;0.8;0.4;;;;;;;22.62;46.66406;935.3063;;;;
2023/04/29 11:50:00;;;;;;;1;0.3;;;;;;;22.44;47.12598;935.3471;;;;
2023/04/29 11:52:26;;;;;;;1.6;0.5;;;;;;;22.11;46.25977;935.2852;;;;
2023/04/29 11:54:52;;;;;;;0.3;0.3;;;;;;;23.04;45.24023;935.2512;;;;
2023/04/29 11:57:17;;;;;;;0.4;0.4;;;;;;;23.02;43.71094;935.3098;;;;
2023/04/29 11:59:42;;;;;;;0.7;0.7;;;;;;;21.85;46.51367;935.2211;;;;
2023/04/29 12:02:07;;;;;;;1.1;0.6;;;;;;;23.21;47.87891;935.1847;;;;
2023/04/29 12:04:35;;;;;;;0.7;0.4;;;;;;;24;44.38379;935.1754;;;;
2023/04/29 12:07:00;;;;;;;0.5;0.4;;;;;;;24.46;41.86035;935.1379;;;;
2023/04/29 12:09:25;;;;;;;0.2;0.2;;;;;;;24.99;40.9541;935.1022;;;;
2023/04/29 12:11:53;;;;;;;0.4;0.2;;;;;;;24.2;41.37695;935.0318;;;;
2023/04/29 12:14:25;;;;;;;0.3;0.3;;;;;;;23.83;41.89551;935.0636;;;;
2023/04/29 12:16:53;;;;;;;0.4;0.3;;;;;;;24.19;40.48047;934.9995;;;;
2023/04/29 12:19:17;;;;;;;0.3;0.3;;;;;;;24.43;40.16113;935.0392;;;;
2023/04/29 12:21:42;;;;;;;0.2;0.2;;;;;;;23.94;42.36621;934.9689;;;;
2023/04/29 12:24:07;;;;;;;0.8;0.4;;;;;;;23.39;41.58496;934.9154;;;;
2023/04/29 12:26:37;;;;;;;0.4;0.4;;;;;;;23.09;42.49707;934.9204;;;;
2023/04/29 12:29:05;;;;;;;0.6;0.6;;;;;;;23.24;41.94629;934.9011;;;;
2023/04/29 12:31:30;;;;;;;0.2;0.2;;;;;;;23.36;43.47363;934.8778;;;;
2023/04/29 12:33:56;;;;;;;0.5;0.5;;;;;;;23.92;42.39844;934.8041;;;;
2023/04/29 12:36:24;;;;;;;0.8;0.4;;;;;;;23.99;43.58301;934.777;;;;
2023/04/29 12:38:51;;;;;;;0.7;0.4;;;;;;;23.28;44.85254;934.8555;;;;
2023/04/29 12:41:17;;;;;;;0.4;0.4;;;;;;;23.89;42.03223;934.8744;;;;
2023/04/29 12:43:42;;;;;;;0.9;0.4;;;;;;;24.3;40.93848;934.8461;;;;
2023/04/29 12:46:07;;;;;;;0.4;0.3;;;;;;;24.46;37.44238;934.7453;;;;
2023/04/29 12:48:33;;;;;;;0.4;0.3;;;;;;;24.17;37.6875;934.7485;;;;
2023/04/29 12:50:58;;;;;;;0.3;0.3;;;;;;;23.41;40.69238;934.7582;;;;
2023/04/29 12:53:25;;;;;;;0.3;0.3;;;;;;;22.48;39.87988;934.7839;;;;
2023/04/29 12:55:51;;;;;;;0.3;0.3;;;;;;;22.3;41.1543;934.7098;;;;
2023/04/29 12:58:17;;;;;;;0.4;0.4;;;;;;;21.75;42.73047;934.7206;;;;
2023/04/29 13:00:42;;;;;;;0.7;0.3;;;;;;;21.46;43.72168;934.7281;;;;
2023/04/29 13:03:14;;;;;;;0.6;0.5;;;;;;;21.55;46.6123;934.7659;;;;
2023/04/29 13:05:44;;;;;;;1.5;0.3;;;;;;;21.67;46.62305;934.8898;;;;
2023/04/29 13:08:09;;;;;;;0.6;0.6;;;;;;;21.67;48.64941;934.9294;;;;
2023/04/29 13:10:37;;;;;;;0.7;0.7;;;;;;;21.11;52.26074;934.8829;;;;
2023/04/29 13:13:02;;;;;;;0.5;0.5;;;;;;;21.23;53.15332;934.8942;;;;
2023/04/29 13:15:40;;;;;;;0.9;0.7;;;;;;;21.14;55.3877;934.8;;;;
2023/04/29 13:18:04;;;;;;;3.1;0.6;;;;;;;20.87;55.98633;934.8345;;;;
2023/04/29 13:20:31;;;;;;;1.8;0.7;;;;;;;21.21;53.43164;934.8993;;;;
2023/04/29 13:22:56;;;;;;;1.7;0.9;;;;;;;21.31;53.39648;934.868;;;;
2023/04/29 13:25:24;;;;;;;2;0.9;;;;;;;21.26;52.58301;934.9169;;;;
2023/04/29 13:27:49;;;;;;;0.9;0.8;;;;;;;20.72;55.25391;934.9003;;;;
2023/04/29 13:30:17;;;;;;;0.9;0.6;;;;;;;20.87;56.4873;934.8348;;;;
2023/04/29 13:32:43;;;;;;;1.2;0.8;;;;;;;21.02;55.95703;934.8188;;;;
2023/04/29 13:35:18;;;;;;;0.9;0.7;;;;;;;20.88;54.48926;934.815;;;;
2023/04/29 13:37:49;;;;;;;7.2;1.3;;;;;;;20.07;55.84961;934.8693;;;;
2023/04/29 13:40:19;;;;;;;0.7;0.7;;;;;;;19.45;58.92871;934.7544;;;;
2023/04/29 13:42:50;;;;;;;0.6;0.6;;;;;;;19.15;59.11035;934.795;;;;
2023/04/29 13:45:19;;;;;;;0.7;0.5;;;;;;;18.72;61.35547;934.851;;;;
2023/04/29 13:47:44;;;;;;;1.7;0.6;;;;;;;18.58;62.08105;934.871;;;;
2023/04/29 13:50:14;;;;;;;0.7;0.7;;;;;;;19.03;59.58301;934.9033;;;;
2023/04/29 13:52:42;;;;;;;0.6;0.6;;;;;;;19.16;60.7998;934.9199;;;;
2023/04/29 13:55:07;;;;;;;1.4;0.8;;;;;;;19.39;59.58398;934.8577;;;;
2023/04/29 13:57:33;;;;;;;0.6;0.6;;;;;;;19.43;59.95117;934.8494;;;;
2023/04/29 13:59:58;;;;;;;0.7;0.7;;;;;;;19.2;60.04883;934.7433;;;;
2023/04/29 14:02:29;;;;;;;0.9;0.7;;;;;;;19.26;59.7666;934.7701;;;;
2023/04/29 14:04:55;;;;;;;1.3;0.8;;;;;;;19.2;60.12891;934.7371;;;;
2023/04/29 14:07:20;;;;;;;2.1;0.9;;;;;;;19.52;58.01758;934.7506;;;;
2023/04/29 14:09:48;;;;;;;0.7;0.7;;;;;;;19.44;57.27344;934.815;;;;
2023/04/29 14:12:12;;;;;;;1.7;0.9;;;;;;;19.35;57.85547;934.8864;;;;
2023/04/29 14:14:40;;;;;;;0.8;0.8;;;;;;;19.11;58.91895;934.9083;;;;
2023/04/29 14:17:07;;;;;;;0.8;0.8;;;;;;;18.84;59.61523;934.9083;;;;
2023/04/29 14:19:37;;;;;;;0.8;0.8;;;;;;;18.6;60.61914;935.039;;;;
2023/04/29 14:22:06;;;;;;;1.6;1;;;;;;;18.4;62.26465;935.1891;;;;
2023/04/29 14:24:31;;;;;;;1.3;0.9;;;;;;;18.14;65.13379;935.3;;;;
2023/04/29 14:27:00;;;;;;;1.4;0.9;;;;;;;17.14;69.37695;935.4439;;;;
2023/04/29 14:29:29;;;;;;;2.8;0.9;;;;;;;17.3;70.25098;935.5358;;;;
2023/04/29 14:31:54;;;;;;;2.1;0.9;;;;;;;16.91;68.94629;935.7072;;;;
2023/04/29 14:34:20;;;;;;;0.7;0.7;;;;;;;16.33;70.03516;935.8031;;;;
2023/04/29 14:36:45;;;;;;;0.6;0.6;;;;;;;15.51;72.06543;935.9938;;;;
2023/04/29 14:39:15;;;;;;;2.7;1.1;;;;;;;15.1;80.83496;936.1266;;;;
2023/04/29 14:41:40;;;;;;;3.5;1.5;;;;;;;14.92;78.32227;936.0922;;;;
2023/04/29 14:44:07;;;;;;;2;0.6;;;;;;;15.22;73.18359;935.7869;;;;
2023/04/29 14:46:32;;;;;;;0.7;0.4;;;;;;;14.96;75.07715;935.6668;;;;
2023/04/29 14:48:57;;;;;;;1.2;0.7;;;;;;;14.61;78.98145;935.698;;;;